Time;durP1;ratioP1;P1;durP2;ratioP2;P2;SDS_P1;SDS_P2;PMS_P1;PMS_P2;Temp;Humidity;BMP_temperature;BMP_pressure;BME280_temperature;BME280_humidity;BME280_pressure;Samples;Min_cycle;Max_cycle;Signal;HPM_P1;HPM_P2
2022/03/11 00:01:37;;;;;;;12.43;9.10;;;;;;;5.46;nan;101773.31;5090718;28;20480;-61
2022/03/11 00:04:02;;;;;;;11.93;9.20;;;;;;;5.44;nan;101767.16;5090864;28;20642;-60
2022/03/11 00:06:27;;;;;;;11.25;8.48;;;;;;;5.42;nan;101763.59;5090614;28;20161;-59
2022/03/11 00:08:53;;;;;;;11.03;8.33;;;;;;;5.39;nan;101759.16;5090626;28;20408;-60
2022/03/11 00:11:18;;;;;;;12.77;8.23;;;;;;;5.37;nan;101759.81;5090475;28;20046;-60
2022/03/11 00:13:43;;;;;;;10.40;8.40;;;;;;;5.34;nan;101763.09;5090516;28;20043;-60
2022/03/11 00:16:09;;;;;;;10.63;8.03;;;;;;;5.29;nan;101760.19;5090866;28;20028;-60
2022/03/11 00:18:34;;;;;;;12.40;8.20;;;;;;;5.24;nan;101755.50;5090386;28;20388;-59
2022/03/11 00:21:00;;;;;;;13.63;9.02;;;;;;;5.19;nan;101750.06;5090114;28;20035;-59
2022/03/11 00:23:25;;;;;;;11.97;9.40;;;;;;;5.15;nan;101754.09;5090442;28;20033;-58
2022/03/11 00:25:50;;;;;;;15.38;9.30;;;;;;;5.11;nan;101751.22;5090520;28;20062;-59
2022/03/11 00:28:16;;;;;;;9.57;8.57;;;;;;;5.09;nan;101745.09;5090442;28;20348;-60
2022/03/11 00:30:41;;;;;;;15.15;9.80;;;;;;;5.09;nan;101747.66;5090568;28;20024;-60
2022/03/11 00:33:07;;;;;;;13.37;8.83;;;;;;;5.04;nan;101748.22;5090167;28;20039;-59
2022/03/11 00:35:34;;;;;;;12.00;8.63;;;;;;;5.04;nan;101750.78;5090416;28;20027;-60
2022/03/11 00:37:59;;;;;;;10.47;8.90;;;;;;;5.01;nan;101748.00;5090238;28;20468;-60
2022/03/11 00:40:25;;;;;;;12.65;8.18;;;;;;;5.05;nan;101750.00;5089920;28;20027;-60
2022/03/11 00:42:50;;;;;;;10.63;8.00;;;;;;;5.02;nan;101742.06;5090063;28;20095;-60
2022/03/11 00:45:16;;;;;;;10.60;8.68;;;;;;;4.99;nan;101736.72;5089936;28;20032;-60
2022/03/11 00:47:42;;;;;;;12.33;8.73;;;;;;;4.96;nan;101743.34;5089822;28;20103;-60
2022/03/11 00:50:08;;;;;;;12.02;8.18;;;;;;;4.94;nan;101740.66;5089907;28;20028;-60
2022/03/11 00:52:33;;;;;;;11.63;9.30;;;;;;;4.96;nan;101733.97;5089848;28;20027;-59
2022/03/11 00:54:58;;;;;;;13.13;8.88;;;;;;;5.01;nan;101736.84;5089974;28;20095;-59
2022/03/11 00:57:24;;;;;;;11.27;8.53;;;;;;;5.01;nan;101737.75;5089792;28;20032;-60
2022/03/11 00:59:49;;;;;;;12.43;8.80;;;;;;;4.98;nan;101729.84;5089671;28;20051;-59
2022/03/11 01:02:14;;;;;;;12.17;9.23;;;;;;;5.00;nan;101728.22;5090057;28;20082;-60
2022/03/11 01:04:40;;;;;;;14.33;8.80;;;;;;;4.95;nan;101729.59;5089614;28;20035;-60
2022/03/11 01:07:05;;;;;;;9.90;8.17;;;;;;;4.89;nan;101726.63;5089585;28;20032;-60
2022/03/11 01:09:30;;;;;;;11.53;8.60;;;;;;;4.90;nan;101720.69;5089867;28;20028;-59
2022/03/11 01:11:56;;;;;;;10.18;8.43;;;;;;;4.87;nan;101723.03;5090262;28;20475;-58
2022/03/11 01:14:21;;;;;;;12.53;8.70;;;;;;;4.84;nan;101720.28;5089634;28;20020;-60
2022/03/11 01:16:46;;;;;;;12.27;9.17;;;;;;;4.81;nan;101713.22;5089698;28;20123;-58
2022/03/11 01:19:12;;;;;;;13.07;8.80;;;;;;;4.78;nan;101708.78;5089723;28;20020;-58
2022/03/11 01:21:37;;;;;;;12.13;9.07;;;;;;;4.73;nan;101704.97;5089650;28;20020;-60
2022/03/11 01:24:03;;;;;;;13.47;8.40;;;;;;;4.73;nan;101707.53;5089760;28;20066;-59
2022/03/11 01:26:29;;;;;;;11.60;9.30;;;;;;;4.72;nan;101703.22;5089234;28;20024;-59
2022/03/11 01:28:54;;;;;;;10.50;8.13;;;;;;;4.72;nan;101698.06;5089420;28;20020;-58
2022/03/11 01:31:19;;;;;;;11.30;8.53;;;;;;;4.71;nan;101691.16;5088590;28;20082;-60
2022/03/11 01:33:46;;;;;;;12.20;8.77;;;;;;;4.73;nan;101694.69;5089197;28;20030;-60
2022/03/11 01:36:12;;;;;;;12.67;7.67;;;;;;;4.72;nan;101692.94;5089571;28;20028;-60
2022/03/11 01:38:39;;;;;;;12.63;9.43;;;;;;;4.71;nan;101686.03;5089533;28;20031;-59
2022/03/11 01:41:05;;;;;;;12.10;8.57;;;;;;;4.69;nan;101678.19;5089623;28;20024;-59
2022/03/11 01:43:30;;;;;;;11.10;8.70;;;;;;;4.65;nan;101680.44;5089383;28;20176;-59
2022/03/11 01:45:58;;;;;;;10.20;8.37;;;;;;;4.63;nan;101674.31;5089521;28;20571;-59
2022/03/11 01:48:23;;;;;;;10.23;7.93;;;;;;;4.61;nan;101673.31;5089194;28;20028;-60
2022/03/11 01:50:49;;;;;;;11.00;8.67;;;;;;;4.58;nan;101674.00;5089121;28;20056;-60
2022/03/11 01:53:14;;;;;;;11.07;8.13;;;;;;;4.59;nan;101664.63;5089463;28;20024;-60
2022/03/11 01:55:40;;;;;;;11.07;8.67;;;;;;;4.63;nan;101658.91;5089334;28;20032;-59
2022/03/11 01:58:07;;;;;;;10.47;8.57;;;;;;;4.61;nan;101663.03;5089336;28;20032;-60
2022/03/11 02:00:40;;;;;;;13.43;8.17;;;;;;;4.59;nan;101650.09;5092991;28;20051;-59
2022/03/11 02:03:07;;;;;;;10.53;8.20;;;;;;;4.59;nan;101649.22;5093154;28;20080;-58
2022/03/11 02:05:32;;;;;;;12.93;8.40;;;;;;;4.55;nan;101645.56;5092976;28;20024;-58
2022/03/11 02:07:58;;;;;;;13.23;8.80;;;;;;;4.52;nan;101635.94;5092776;28;20391;-59
2022/03/11 02:10:25;;;;;;;12.40;8.60;;;;;;;4.57;nan;101638.81;5092929;28;20074;-59
2022/03/11 02:12:50;;;;;;;10.47;7.80;;;;;;;4.56;nan;101634.50;5092998;28;20035;-60
2022/03/11 02:15:15;;;;;;;11.47;8.37;;;;;;;4.56;nan;101625.13;5092908;28;20157;-60
2022/03/11 02:17:41;;;;;;;11.67;8.27;;;;;;;4.55;nan;101623.31;5092805;28;20371;-59
2022/03/11 02:20:06;;;;;;;12.23;8.10;;;;;;;4.57;nan;101618.28;5092878;28;20077;-60
2022/03/11 02:22:36;;;;;;;11.33;8.40;;;;;;;4.62;nan;101624.66;5092521;28;20021;-60
2022/03/11 02:25:04;;;;;;;9.47;8.20;;;;;;;4.65;nan;101618.81;5092661;28;20066;-59
2022/03/11 02:27:35;;;;;;;11.17;8.77;;;;;;;4.67;nan;101614.69;5092596;28;20081;-59
2022/03/11 02:30:00;;;;;;;12.33;8.07;;;;;;;4.67;nan;101614.69;5092475;28;20107;-60
2022/03/11 02:32:25;;;;;;;9.70;7.43;;;;;;;4.63;nan;101612.69;5092516;28;20114;-60
2022/03/11 02:34:51;;;;;;;11.30;9.03;;;;;;;4.65;nan;101600.84;5092699;28;20172;-60
2022/03/11 02:37:16;;;;;;;12.13;8.20;;;;;;;4.66;nan;101600.06;5092415;28;20130;-60
2022/03/11 02:39:42;;;;;;;11.57;8.13;;;;;;;4.67;nan;101599.28;5092368;28;20027;-59
2022/03/11 02:42:07;;;;;;;9.37;8.33;;;;;;;4.72;nan;101597.03;5092446;28;20028;-60
2022/03/11 02:44:33;;;;;;;12.03;8.03;;;;;;;4.69;nan;101605.41;5092218;28;20035;-59
2022/03/11 02:46:59;;;;;;;11.57;8.30;;;;;;;4.66;nan;101597.47;5092350;28;20121;-59
2022/03/11 02:49:26;;;;;;;13.60;8.80;;;;;;;4.64;nan;101593.94;5092374;28;20077;-60
2022/03/11 02:51:52;;;;;;;12.27;7.73;;;;;;;4.61;nan;101596.28;5091985;28;20024;-58
2022/03/11 02:54:18;;;;;;;9.83;7.50;;;;;;;4.63;nan;101603.31;5092505;28;20106;-59
2022/03/11 02:56:43;;;;;;;10.67;8.60;;;;;;;4.60;nan;101600.56;5091830;28;20532;-59
2022/03/11 02:59:08;;;;;;;13.47;8.73;;;;;;;4.55;nan;101592.50;5091992;28;20028;-59
2022/03/11 03:01:34;;;;;;;9.87;8.27;;;;;;;4.58;nan;101591.84;5091652;28;20052;-60
2022/03/11 03:03:59;;;;;;;12.50;9.10;;;;;;;4.55;nan;101589.94;5092085;28;20119;-59
2022/03/11 03:06:24;;;;;;;11.37;8.17;;;;;;;4.49;nan;101581.84;5091806;28;20110;-60
2022/03/11 03:08:49;;;;;;;10.17;9.03;;;;;;;4.44;nan;101578.94;5091944;28;20313;-60
2022/03/11 03:11:15;;;;;;;11.83;9.07;;;;;;;4.41;nan;101583.88;5091510;28;20028;-60
2022/03/11 03:13:40;;;;;;;12.20;8.30;;;;;;;4.40;nan;101584.66;5090144;28;20081;-59
2022/03/11 03:16:06;;;;;;;11.43;8.57;;;;;;;4.32;nan;101584.13;5091606;28;20028;-60
2022/03/11 03:18:31;;;;;;;10.27;8.90;;;;;;;4.32;nan;101584.13;5091611;28;20032;-59
2022/03/11 03:20:56;;;;;;;11.93;8.07;;;;;;;4.32;nan;101584.13;5091509;28;20031;-59
2022/03/11 03:23:24;;;;;;;13.17;8.50;;;;;;;4.31;nan;101582.34;5091571;28;20024;-60
2022/03/11 03:25:50;;;;;;;11.73;8.30;;;;;;;4.29;nan;101586.47;5091838;28;20030;-59
2022/03/11 03:28:15;;;;;;;9.93;8.87;;;;;;;4.25;nan;101581.91;5091464;28;20543;-59
2022/03/11 03:30:40;;;;;;;13.00;8.20;;;;;;;4.22;nan;101581.69;5091646;28;20499;-58
2022/03/11 03:33:06;;;;;;;11.13;8.63;;;;;;;4.18;nan;101578.03;5091431;28;20051;-60
2022/03/11 03:35:31;;;;;;;12.40;8.73;;;;;;;4.15;nan;101574.34;5091238;28;20106;-59
2022/03/11 03:37:57;;;;;;;14.13;9.37;;;;;;;4.13;nan;101575.91;5091445;28;20031;-59
2022/03/11 03:40:22;;;;;;;10.00;8.33;;;;;;;4.15;nan;101574.34;5091204;28;20589;-59
2022/03/11 03:42:48;;;;;;;11.33;7.80;;;;;;;4.11;nan;101578.38;5089897;28;20028;-58
2022/03/11 03:45:13;;;;;;;13.73;8.43;;;;;;;4.12;nan;101579.28;5091223;28;20365;-59
2022/03/11 03:47:38;;;;;;;9.87;8.33;;;;;;;4.10;nan;101570.59;5091141;28;20282;-58
2022/03/11 03:50:04;;;;;;;13.23;9.13;;;;;;;4.07;nan;101571.25;5091084;28;20495;-62
2022/03/11 03:52:30;;;;;;;11.17;8.53;;;;;;;4.05;nan;101563.44;5089540;28;20028;-59
2022/03/11 03:54:55;;;;;;;11.03;8.43;;;;;;;4.03;nan;101571.84;5090971;28;20426;-58
2022/03/11 03:57:21;;;;;;;12.17;8.73;;;;;;;4.01;nan;101571.69;5090923;28;20036;-59
2022/03/11 03:59:46;;;;;;;15.47;8.87;;;;;;;3.98;nan;101566.34;5090536;28;20329;-61
2022/03/11 04:02:12;;;;;;;10.13;8.40;;;;;;;3.96;nan;101562.78;5090835;28;20589;-59
2022/03/11 04:04:37;;;;;;;11.37;8.00;;;;;;;3.93;nan;101558.34;5091097;28;20507;-58
2022/03/11 04:07:03;;;;;;;11.87;8.80;;;;;;;3.93;nan;101562.56;5090569;28;20480;-58
2022/03/11 04:09:28;;;;;;;10.40;7.60;;;;;;;3.93;nan;101562.56;5090714;28;20022;-59
2022/03/11 04:11:54;;;;;;;10.10;7.73;;;;;;;3.93;nan;101557.44;5090644;28;20024;-60
2022/03/11 04:14:19;;;;;;;13.17;7.57;;;;;;;3.94;nan;101561.81;5090500;28;20027;-59
2022/03/11 04:16:44;;;;;;;11.27;7.73;;;;;;;3.96;nan;101556.00;5090511;28;20495;-59
2022/03/11 04:19:09;;;;;;;11.97;8.17;;;;;;;3.98;nan;101561.22;5090644;28;20030;-59
2022/03/11 04:21:35;;;;;;;12.80;8.00;;;;;;;3.99;nan;101560.47;5089282;28;20462;-59
2022/03/11 04:24:00;;;;;;;8.93;7.33;;;;;;;4.00;nan;101554.53;5090347;28;20046;-59
2022/03/11 04:26:26;;;;;;;10.47;7.53;;;;;;;3.99;nan;101554.44;5090331;28;20024;-59
2022/03/11 04:28:51;;;;;;;12.23;8.00;;;;;;;3.97;nan;101554.31;5090427;28;20129;-59
2022/03/11 04:31:16;;;;;;;12.80;8.20;;;;;;;3.95;nan;101551.66;5090704;28;20038;-62
2022/03/11 04:33:42;;;;;;;12.27;8.37;;;;;;;3.97;nan;101547.50;5090442;28;20101;-60
2022/03/11 04:36:09;;;;;;;11.77;7.57;;;;;;;3.98;nan;101545.84;5090295;28;20023;-59
2022/03/11 04:38:35;;;;;;;9.30;7.73;;;;;;;3.97;nan;101544.06;5090378;28;20476;-60
2022/03/11 04:41:01;;;;;;;11.53;7.50;;;;;;;3.96;nan;101552.53;5090267;28;20111;-60
2022/03/11 04:43:27;;;;;;;12.30;7.93;;;;;;;3.92;nan;101545.41;5090065;28;20476;-60
2022/03/11 04:45:53;;;;;;;13.93;8.10;;;;;;;3.94;nan;101541.28;5090013;28;20031;-59
2022/03/11 04:48:18;;;;;;;12.60;7.23;;;;;;;3.94;nan;101546.44;5090234;28;20024;-59
2022/03/11 04:50:44;;;;;;;10.23;8.03;;;;;;;3.94;nan;101547.28;5089902;28;20475;-59
2022/03/11 04:53:10;;;;;;;11.13;6.90;;;;;;;3.94;nan;101549.84;5089882;28;20028;-60
2022/03/11 04:55:36;;;;;;;9.87;7.77;;;;;;;3.99;nan;101549.31;5089995;28;20024;-60
2022/03/11 04:58:01;;;;;;;11.03;7.30;;;;;;;3.97;nan;101544.94;5090106;28;20035;-60
2022/03/11 05:00:26;;;;;;;12.33;7.43;;;;;;;3.97;nan;101551.75;5089408;28;20396;-60
2022/03/11 05:02:52;;;;;;;11.03;7.37;;;;;;;3.96;nan;101544.84;5089669;28;20027;-59
2022/03/11 05:05:18;;;;;;;8.17;6.90;;;;;;;3.98;nan;101540.72;5089896;28;20024;-60
2022/03/11 05:07:43;;;;;;;10.37;7.63;;;;;;;3.99;nan;101547.63;5089571;28;20055;-60
2022/03/11 05:10:11;;;;;;;9.67;7.77;;;;;;;3.97;nan;101542.38;5089939;28;20662;-59
2022/03/11 05:12:37;;;;;;;12.13;7.60;;;;;;;3.98;nan;101535.56;5089714;28;20110;-60
2022/03/11 05:15:05;;;;;;;11.80;7.53;;;;;;;3.96;nan;101537.13;5090133;28;20384;-60
2022/03/11 05:17:31;;;;;;;11.27;6.73;;;;;;;3.94;nan;101541.28;5089438;28;20020;-60
2022/03/11 05:19:56;;;;;;;9.47;7.03;;;;;;;3.95;nan;101537.94;5089618;28;20027;-59
2022/03/11 05:22:22;;;;;;;11.30;6.93;;;;;;;3.98;nan;101538.13;5089493;28;20507;-60
2022/03/11 05:24:47;;;;;;;9.07;6.80;;;;;;;3.97;nan;101534.69;5089808;28;20069;-60
2022/03/11 05:27:13;;;;;;;10.03;7.17;;;;;;;3.97;nan;101533.81;5089462;28;20028;-60
2022/03/11 05:29:40;;;;;;;11.87;7.33;;;;;;;3.96;nan;101532.00;5089477;28;20020;-59
2022/03/11 05:32:06;;;;;;;12.57;7.40;;;;;;;3.99;nan;101519.41;5089465;28;20044;-59
2022/03/11 05:34:32;;;;;;;9.90;7.43;;;;;;;3.97;nan;101532.13;5093713;28;20115;-59
2022/03/11 05:36:57;;;;;;;9.70;7.30;;;;;;;3.96;nan;101532.00;5094069;28;20103;-58
2022/03/11 05:39:22;;;;;;;12.30;7.40;;;;;;;3.95;nan;101522.53;5093420;28;20076;-59
2022/03/11 05:41:48;;;;;;;11.63;6.93;;;;;;;3.96;nan;101526.88;5093333;28;20049;-60
2022/03/11 05:44:16;;;;;;;10.07;6.87;;;;;;;3.95;nan;101527.69;5093619;28;20138;-59
2022/03/11 05:46:42;;;;;;;11.37;7.17;;;;;;;3.95;nan;101519.97;5092867;28;20790;-60
2022/03/11 05:49:07;;;;;;;11.20;6.67;;;;;;;3.93;nan;101518.97;5092000;28;20051;-60
2022/03/11 05:51:33;;;;;;;11.87;7.13;;;;;;;3.95;nan;101527.69;5090820;28;20023;-58
2022/03/11 05:53:58;;;;;;;16.63;7.53;;;;;;;3.99;nan;101516.84;5089940;28;20024;-60
2022/03/11 05:56:23;;;;;;;13.40;8.17;;;;;;;3.97;nan;101519.28;5090352;28;20424;-60
2022/03/11 05:58:50;;;;;;;12.30;7.33;;;;;;;3.99;nan;101516.84;5090570;28;20142;-60
2022/03/11 06:01:16;;;;;;;10.60;7.30;;;;;;;3.98;nan;101520.19;5091979;28;20400;-60
2022/03/11 06:03:42;;;;;;;11.10;7.60;;;;;;;3.97;nan;101521.00;5093083;28;20074;-59
2022/03/11 06:06:07;;;;;;;11.07;7.63;;;;;;;3.96;nan;101514.06;5092968;28;20525;-60
2022/03/11 06:08:32;;;;;;;9.87;6.80;;;;;;;3.95;nan;101512.28;5092904;28;20024;-59
2022/03/11 06:10:58;;;;;;;13.70;7.93;;;;;;;3.97;nan;101515.84;5092934;28;20133;-60
2022/03/11 06:13:23;;;;;;;11.50;7.27;;;;;;;3.97;nan;101514.16;5092894;28;20072;-60
2022/03/11 06:15:49;;;;;;;11.70;7.53;;;;;;;3.99;nan;101514.28;5092788;28;20425;-60
2022/03/11 06:18:17;;;;;;;15.00;8.30;;;;;;;3.99;nan;101514.28;5093143;28;20019;-59
2022/03/11 06:20:43;;;;;;;11.53;7.87;;;;;;;3.96;nan;101521.75;5092591;28;20024;-59
2022/03/11 06:23:08;;;;;;;14.47;7.83;;;;;;;3.95;nan;101523.44;5092557;28;20536;-59
2022/03/11 06:25:34;;;;;;;12.53;7.77;;;;;;;3.95;nan;101519.97;5092672;28;20042;-59
2022/03/11 06:27:59;;;;;;;10.30;7.47;;;;;;;3.93;nan;101524.09;5093159;28;20060;-60
2022/03/11 06:30:25;;;;;;;11.53;7.63;;;;;;;3.95;nan;101530.25;5092498;28;20085;-59
2022/03/11 06:32:51;;;;;;;12.13;7.80;;;;;;;3.96;nan;101526.88;5092587;28;20035;-60
2022/03/11 06:35:17;;;;;;;10.53;7.77;;;;;;;3.98;nan;101522.75;5092210;28;20420;-59
2022/03/11 06:37:44;;;;;;;11.03;7.53;;;;;;;3.97;nan;101531.25;5092207;28;20091;-59
2022/03/11 06:40:10;;;;;;;15.40;7.97;;;;;;;3.98;nan;101522.75;5092221;28;20503;-60
2022/03/11 06:42:44;;;;;;;10.33;7.33;;;;;;;4.03;nan;101523.97;5092178;28;20028;-60
2022/03/11 06:45:11;;;;;;;12.97;7.80;;;;;;;4.08;nan;101522.59;5091555;28;20468;-59
2022/03/11 06:47:37;;;;;;;10.60;7.10;;;;;;;4.11;nan;101518.47;5092038;28;20038;-60
2022/03/11 06:50:04;;;;;;;10.63;7.60;;;;;;;4.17;nan;101518.91;5092067;28;20016;-60
2022/03/11 06:52:30;;;;;;;13.63;7.83;;;;;;;4.21;nan;101520.88;5091890;28;20024;-60
2022/03/11 06:54:55;;;;;;;12.57;7.93;;;;;;;4.25;nan;101530.59;5092236;28;20024;-60
2022/03/11 06:57:21;;;;;;;12.30;7.67;;;;;;;4.36;nan;101522.72;5091319;28;20765;-60
2022/03/11 06:59:48;;;;;;;12.10;8.10;;;;;;;4.50;nan;101527.13;5091878;28;20759;-60
2022/03/11 07:02:14;;;;;;;14.03;8.03;;;;;;;4.70;nan;101519.88;5091862;28;20429;-60
2022/03/11 07:04:40;;;;;;;12.20;7.93;;;;;;;4.90;nan;101518.66;5091787;28;20234;-60
2022/03/11 07:07:05;;;;;;;10.33;7.10;;;;;;;5.14;nan;101513.34;5091625;28;20391;-60
2022/03/11 07:09:31;;;;;;;13.20;8.10;;;;;;;5.28;nan;101509.09;5091666;28;20117;-60
2022/03/11 07:12:02;;;;;;;13.17;8.23;;;;;;;5.36;nan;101498.44;5091568;28;20020;-60
2022/03/11 07:14:28;;;;;;;11.95;8.15;;;;;;;5.65;nan;101502.84;5091348;28;20387;-60
2022/03/11 07:16:56;;;;;;;10.93;8.00;;;;;;;5.80;nan;101501.13;5091349;28;20379;-60
2022/03/11 07:19:22;;;;;;;11.02;8.00;;;;;;;5.79;nan;101494.22;5091454;28;20392;-60
2022/03/11 07:21:48;;;;;;;14.30;8.23;;;;;;;5.92;nan;101496.72;5091311;28;20583;-59
2022/03/11 07:24:13;;;;;;;11.33;8.80;;;;;;;5.94;nan;101505.44;5091457;28;20111;-60
2022/03/11 07:26:39;;;;;;;11.93;8.40;;;;;;;6.11;nan;101503.06;5091358;28;20027;-60
2022/03/11 07:29:04;;;;;;;11.65;8.02;;;;;;;6.34;nan;101503.53;5091736;28;20052;-59
2022/03/11 07:31:30;;;;;;;9.65;8.00;;;;;;;6.74;nan;101505.03;5091402;28;20465;-59
2022/03/11 07:33:58;;;;;;;10.20;8.18;;;;;;;7.07;nan;101507.75;5091181;28;20024;-60
2022/03/11 07:36:24;;;;;;;14.05;8.75;;;;;;;7.27;nan;101496.78;5090899;28;20533;-60
2022/03/11 07:38:49;;;;;;;16.85;9.25;;;;;;;7.33;nan;101494.56;5091310;28;20020;-60
2022/03/11 07:41:18;;;;;;;12.00;8.93;;;;;;;7.63;nan;101494.50;5091074;28;20460;-58
2022/03/11 07:43:44;;;;;;;11.73;8.73;;;;;;;8.11;nan;101503.88;5090889;28;20081;-60
2022/03/11 07:46:14;;;;;;;14.32;9.45;;;;;;;8.67;nan;101494.69;5091104;28;20103;-60
2022/03/11 07:48:40;;;;;;;11.00;8.95;;;;;;;9.15;nan;101493.56;5090944;28;20024;-59
2022/03/11 07:51:06;;;;;;;13.68;8.82;;;;;;;9.52;nan;101490.13;5090935;28;20024;-60
2022/03/11 07:53:32;;;;;;;13.63;9.20;;;;;;;9.92;nan;101485.00;5090666;28;20031;-60
2022/03/11 07:55:57;;;;;;;14.05;9.30;;;;;;;9.97;nan;101496.47;5090956;28;20056;-58
2022/03/11 07:58:24;;;;;;;13.00;8.88;;;;;;;9.88;nan;101483.97;5091048;28;20024;-59
2022/03/11 08:00:49;;;;;;;14.40;9.43;;;;;;;10.20;nan;101478.47;5090592;28;20036;-60
2022/03/11 08:03:16;;;;;;;13.80;9.80;;;;;;;10.72;nan;101486.72;5091055;28;20534;-60
2022/03/11 08:05:42;;;;;;;13.43;9.57;;;;;;;10.52;nan;101476.41;5090373;28;20024;-60
2022/03/11 08:08:07;;;;;;;14.10;9.13;;;;;;;10.99;nan;101473.13;5090536;28;20192;-60
2022/03/11 08:10:33;;;;;;;12.98;9.63;;;;;;;10.66;nan;101476.13;5090333;28;20094;-60
2022/03/11 08:12:59;;;;;;;11.85;9.52;;;;;;;10.50;nan;101464.22;5090805;28;20044;-60
2022/03/11 08:15:25;;;;;;;16.42;10.23;;;;;;;10.58;nan;101468.00;5090735;28;20028;-60
2022/03/11 08:17:51;;;;;;;12.82;9.18;;;;;;;10.98;nan;101467.88;5090746;28;20039;-60
2022/03/11 08:20:18;;;;;;;14.38;10.45;;;;;;;11.12;nan;101465.84;5091059;28;20046;-59
2022/03/11 08:22:45;;;;;;;12.10;9.70;;;;;;;10.98;nan;101466.19;5090561;28;20511;-60
2022/03/11 08:25:11;;;;;;;13.93;9.57;;;;;;;11.41;nan;101459.22;5090657;28;20028;-60
2022/03/11 08:27:38;;;;;;;13.85;9.45;;;;;;;11.06;nan;101461.31;5090368;28;20099;-59
2022/03/11 08:30:05;;;;;;;14.38;10.15;;;;;;;11.21;nan;101463.63;5090542;28;20031;-60
2022/03/11 08:32:30;;;;;;;14.15;9.50;;;;;;;11.67;nan;101458.44;5090810;28;20442;-60
2022/03/11 08:34:56;;;;;;;15.02;10.30;;;;;;;12.14;nan;101454.94;5090378;28;20099;-60
2022/03/11 08:37:22;;;;;;;13.85;9.98;;;;;;;11.62;nan;101457.38;5090453;28;20035;-60
2022/03/11 08:39:48;;;;;;;18.15;11.23;;;;;;;11.57;nan;101451.09;5089169;28;20020;-60
2022/03/11 08:42:13;;;;;;;13.75;10.27;;;;;;;11.76;nan;101450.09;5090068;28;20421;-60
2022/03/11 08:44:39;;;;;;;13.80;10.60;;;;;;;11.86;nan;101452.19;5090103;28;20020;-59
2022/03/11 08:47:04;;;;;;;14.98;10.20;;;;;;;12.41;nan;101450.66;5090332;28;20020;-60
2022/03/11 08:49:29;;;;;;;11.70;9.95;;;;;;;12.53;nan;101450.19;5089943;28;20244;-60
2022/03/11 08:51:55;;;;;;;13.20;10.73;;;;;;;12.60;nan;101447.84;5089738;28;20023;-60
2022/03/11 08:54:21;;;;;;;13.60;10.30;;;;;;;12.58;nan;101452.09;5090012;28;20035;-60
2022/03/11 08:56:46;;;;;;;11.88;10.32;;;;;;;12.05;nan;101455.47;5089889;28;20024;-61
2022/03/11 08:59:12;;;;;;;13.18;11.02;;;;;;;11.90;nan;101453.19;5090015;28;20028;-60
2022/03/11 09:01:37;;;;;;;12.10;10.18;;;;;;;12.12;nan;101454.88;5089547;28;20047;-60
2022/03/11 09:04:03;;;;;;;12.63;10.10;;;;;;;12.04;nan;101443.31;5088545;28;20035;-60
2022/03/11 09:06:29;;;;;;;18.15;11.15;;;;;;;12.11;nan;101444.44;5090257;28;20028;-60
2022/03/11 09:08:54;;;;;;;11.95;10.18;;;;;;;12.21;nan;101453.44;5089236;28;20031;-61
2022/03/11 09:11:20;;;;;;;15.25;9.52;;;;;;;12.09;nan;101441.78;5090216;28;20016;-60
2022/03/11 09:13:47;;;;;;;14.07;10.88;;;;;;;12.27;nan;101442.38;5089733;28;20056;-60
2022/03/11 09:16:13;;;;;;;12.18;10.88;;;;;;;12.24;nan;101437.97;5089632;28;20024;-60
2022/03/11 09:18:38;;;;;;;13.95;10.55;;;;;;;12.10;nan;101437.47;5089713;28;20024;-60
2022/03/11 09:21:04;;;;;;;12.73;10.20;;;;;;;12.15;nan;101437.63;5089407;28;20031;-59
2022/03/11 09:23:30;;;;;;;11.68;9.98;;;;;;;12.54;nan;101431.16;5089891;28;20121;-61
2022/03/11 09:25:55;;;;;;;13.35;9.52;;;;;;;12.25;nan;101435.41;5089838;28;20027;-61
2022/03/11 09:28:22;;;;;;;15.88;11.10;;;;;;;12.28;nan;101431.16;5089788;28;20435;-61
2022/03/11 09:30:47;;;;;;;13.48;10.35;;;;;;;11.86;nan;101421.03;5089561;28;20020;-61
2022/03/11 09:33:12;;;;;;;13.30;10.88;;;;;;;12.01;nan;101425.03;5089729;28;20077;-59
2022/03/11 09:35:38;;;;;;;11.93;10.43;;;;;;;12.00;nan;101413.72;5089817;28;20111;-60
2022/03/11 09:38:03;;;;;;;12.98;10.45;;;;;;;12.05;nan;101420.81;5089397;28;20111;-60
2022/03/11 09:40:28;;;;;;;12.27;10.00;;;;;;;12.16;nan;101414.28;5089428;28;20024;-60
2022/03/11 09:42:56;;;;;;;16.13;10.43;;;;;;;12.21;nan;101414.47;5090081;28;20094;-60
2022/03/11 09:45:23;;;;;;;13.73;10.15;;;;;;;12.29;nan;101419.91;5089740;28;20051;-60
2022/03/11 09:47:48;;;;;;;17.50;10.23;;;;;;;12.17;nan;101403.09;5089448;28;20016;-60
2022/03/11 09:50:14;;;;;;;13.23;10.15;;;;;;;11.94;nan;101413.53;5089758;28;20077;-61
2022/03/11 09:52:39;;;;;;;15.15;10.88;;;;;;;11.80;nan;101405.22;5089099;28;20111;-60
2022/03/11 09:55:05;;;;;;;12.93;9.90;;;;;;;11.73;nan;101398.03;5089682;28;20020;-61
2022/03/11 09:57:30;;;;;;;12.63;10.50;;;;;;;11.83;nan;101394.06;5089062;28;20098;-60
2022/03/11 09:59:56;;;;;;;16.02;10.40;;;;;;;11.72;nan;101375.50;5089203;28;20024;-60
2022/03/11 10:02:21;;;;;;;12.02;10.52;;;;;;;11.84;nan;101382.84;5088939;28;20052;-60
2022/03/11 10:04:49;;;;;;;12.07;10.82;;;;;;;11.95;nan;101378.03;5089790;28;20016;-60
2022/03/11 10:07:29;;;;;;;12.70;10.98;;;;;;;11.76;nan;101382.59;5089247;28;20457;-61
2022/03/11 10:09:56;;;;;;;15.15;11.57;;;;;;;11.89;nan;101376.13;5089477;28;20031;-61
2022/03/11 10:12:27;;;;;;;11.20;10.10;;;;;;;11.96;nan;101372.88;5089258;28;20024;-60
2022/03/11 10:15:01;;;;;;;12.27;10.15;;;;;;;12.06;nan;101370.63;5089110;28;20107;-60
2022/03/11 10:17:27;;;;;;;16.05;11.20;;;;;;;12.09;nan;101370.72;5089208;28;20498;-60
2022/03/11 10:20:00;;;;;;;11.75;10.55;;;;;;;11.95;nan;101352.97;5090860;28;20337;-61
2022/03/11 10:22:25;;;;;;;11.98;9.75;;;;;;;11.92;nan;101358.06;5092365;28;20549;-61
2022/03/11 10:24:51;;;;;;;16.02;10.23;;;;;;;12.02;nan;101354.03;5092774;28;20020;-60
2022/03/11 10:27:16;;;;;;;11.30;10.02;;;;;;;12.13;nan;101359.63;5092386;28;20464;-61
2022/03/11 10:29:42;;;;;;;11.82;9.68;;;;;;;12.25;nan;101352.25;5093006;28;20024;-60
2022/03/11 10:32:07;;;;;;;15.63;10.45;;;;;;;12.39;nan;101354.44;5092980;28;20055;-60
2022/03/11 10:34:36;;;;;;;11.75;9.90;;;;;;;12.47;nan;101342.56;5092644;28;20034;-61
2022/03/11 10:37:12;;;;;;;13.80;10.05;;;;;;;12.61;nan;101340.41;5092631;28;20488;-61
2022/03/11 10:39:39;;;;;;;13.65;11.27;;;;;;;12.72;nan;101322.53;5092822;28;20024;-60
2022/03/11 10:42:16;;;;;;;17.45;10.77;;;;;;;12.61;nan;101329.13;5092234;28;20306;-61
2022/03/11 10:45:06;;;;;;;12.13;10.15;;;;;;;12.73;nan;101326.94;5092447;28;20030;-61
2022/03/11 10:47:38;;;;;;;15.77;10.43;;;;;;;12.79;nan;101330.56;5092328;28;20027;-61
2022/03/11 10:50:07;;;;;;;11.65;10.45;;;;;;;12.90;nan;101330.88;5092510;28;20495;-61
2022/03/11 10:52:32;;;;;;;12.50;11.05;;;;;;;12.71;nan;101331.19;5092661;28;20059;-61
2022/03/11 10:54:59;;;;;;;17.10;11.20;;;;;;;12.83;nan;101335.88;5092121;28;20027;-60
2022/03/11 10:57:38;;;;;;;15.98;11.73;;;;;;;12.69;nan;101332.84;5092237;28;20031;-60
2022/03/11 11:00:15;;;;;;;13.45;11.13;;;;;;;12.64;nan;101329.22;5092039;28;20039;-61
2022/03/11 11:02:42;;;;;;;14.45;11.30;;;;;;;12.60;nan;101316.97;5091891;28;20136;-61
2022/03/11 11:05:11;;;;;;;13.77;11.32;;;;;;;12.60;nan;101309.16;5091979;28;20120;-61
2022/03/11 11:07:36;;;;;;;12.15;10.70;;;;;;;12.59;nan;101310.00;5091773;28;20043;-61
2022/03/11 11:10:02;;;;;;;12.23;10.93;;;;;;;12.60;nan;101312.66;5091932;28;20512;-61
2022/03/11 11:12:28;;;;;;;12.55;11.20;;;;;;;12.57;nan;101306.47;5091966;28;20058;-61
2022/03/11 11:14:53;;;;;;;14.60;11.07;;;;;;;12.61;nan;101327.41;5092207;28;20020;-61
2022/03/11 11:17:19;;;;;;;20.38;11.60;;;;;;;12.65;nan;101312.78;5091919;28;20426;-60
2022/03/11 11:19:46;;;;;;;15.80;12.40;;;;;;;12.61;nan;101311.81;5092026;28;20085;-61
2022/03/11 11:22:13;;;;;;;15.48;11.63;;;;;;;12.61;nan;101306.59;5091911;28;20028;-61
2022/03/11 11:24:40;;;;;;;16.92;11.98;;;;;;;12.84;nan;101302.97;5091465;28;20425;-62
2022/03/11 11:27:06;;;;;;;15.15;11.27;;;;;;;13.04;nan;101292.25;5091401;28;20024;-62
2022/03/11 11:29:33;;;;;;;13.18;10.60;;;;;;;13.17;nan;101285.66;5091487;28;20440;-62
2022/03/11 11:32:00;;;;;;;12.38;11.05;;;;;;;13.40;nan;101275.91;5091330;28;20498;-61